createdAt,value
2019-02-02T00:00:36.397Z,0.00
2019-02-02T00:01:36.340Z,0.00
2019-02-02T00:02:36.306Z,0.00
2019-02-02T00:03:36.298Z,0.00
2019-02-02T00:04:36.264Z,0.00
2019-02-02T00:05:36.230Z,0.00
2019-02-02T00:06:36.229Z,0.00
2019-02-02T00:07:36.181Z,0.00
2019-02-02T00:08:36.172Z,0.00
2019-02-02T00:09:36.150Z,0.00
2019-02-02T00:10:36.103Z,0.00
2019-02-02T00:11:36.120Z,0.00
2019-02-02T00:12:36.080Z,0.00
2019-02-02T00:13:36.033Z,0.00
2019-02-02T00:14:36.005Z,0.00
2019-02-02T00:15:36.064Z,0.00
2019-02-02T00:16:35.988Z,0.00
2019-02-02T00:17:35.941Z,0.00
2019-02-02T00:18:35.936Z,0.00
2019-02-02T00:19:35.895Z,0.00
2019-02-02T00:20:35.858Z,0.00
2019-02-02T00:21:35.835Z,0.00
2019-02-02T00:22:35.793Z,0.00
2019-02-02T00:23:35.766Z,0.00
2019-02-02T00:24:35.765Z,0.00
2019-02-02T00:25:35.699Z,0.00
2019-02-02T00:26:35.707Z,0.00
2019-02-02T00:27:41.623Z,0.00
2019-02-02T00:28:35.623Z,0.00
2019-02-02T00:29:35.603Z,0.00
2019-02-02T00:30:35.609Z,0.00
2019-02-02T00:31:35.565Z,0.00
2019-02-02T00:32:35.533Z,0.00
2019-02-02T00:33:35.509Z,0.00
2019-02-02T00:34:35.505Z,0.00
2019-02-02T00:35:35.442Z,0.00
2019-02-02T00:36:35.435Z,0.00
2019-02-02T00:37:35.394Z,0.00
2019-02-02T00:38:35.391Z,0.00
2019-02-02T00:39:35.368Z,0.00
2019-02-02T00:40:35.348Z,0.00
2019-02-02T00:41:35.299Z,0.00
2019-02-02T00:42:35.258Z,0.00
2019-02-02T00:43:38.287Z,0.00
2019-02-02T00:44:35.232Z,0.00
2019-02-02T00:45:35.228Z,0.00
2019-02-02T00:46:35.153Z,0.00
2019-02-02T00:47:35.166Z,0.00
2019-02-02T00:48:35.105Z,0.00
2019-02-02T00:49:35.094Z,0.00
2019-02-02T00:50:35.115Z,0.00
2019-02-02T00:51:35.055Z,0.00
2019-02-02T00:52:35.038Z,0.00
2019-02-02T00:53:34.988Z,0.00
2019-02-02T00:54:34.947Z,0.00
2019-02-02T00:55:34.958Z,0.00
2019-02-02T00:56:34.913Z,0.00
2019-02-02T00:57:34.878Z,0.00
2019-02-02T00:58:34.833Z,0.00
2019-02-02T00:59:34.878Z,0.00
2019-02-02T01:00:34.784Z,0.00
2019-02-02T01:01:34.771Z,0.00
2019-02-02T01:02:34.750Z,0.00
2019-02-02T01:03:34.745Z,0.00
2019-02-02T01:04:34.736Z,0.00
2019-02-02T01:05:34.655Z,0.00
2019-02-02T01:06:34.761Z,0.00
2019-02-02T01:07:34.622Z,0.00
2019-02-02T01:08:34.602Z,0.00
2019-02-02T01:09:34.547Z,0.00
2019-02-02T01:10:34.522Z,0.00
2019-02-02T01:11:34.495Z,0.00
2019-02-02T01:12:34.470Z,0.00
2019-02-02T01:13:34.465Z,0.00
2019-02-02T01:14:34.432Z,0.00
2019-02-02T01:15:34.411Z,0.00
2019-02-02T01:16:34.400Z,0.00
2019-02-02T01:17:34.380Z,0.00
2019-02-02T01:18:34.322Z,0.00
2019-02-02T01:19:34.302Z,0.00
2019-02-02T01:20:34.263Z,0.00
2019-02-02T01:21:34.236Z,0.00
2019-02-02T01:22:34.232Z,0.00
2019-02-02T01:23:34.185Z,0.00
2019-02-02T01:24:34.162Z,0.00
2019-02-02T01:25:34.128Z,0.00
2019-02-02T01:26:34.109Z,0.00
2019-02-02T01:27:34.069Z,0.00
2019-02-02T01:28:34.051Z,0.00
2019-02-02T01:29:34.057Z,0.00
2019-02-02T01:30:33.997Z,0.00
2019-02-02T01:31:33.984Z,0.00
2019-02-02T01:32:33.979Z,0.00
2019-02-02T01:33:33.935Z,0.00
2019-02-02T01:34:33.881Z,0.00
2019-02-02T01:35:33.893Z,0.00
2019-02-02T01:36:33.869Z,0.00
2019-02-02T01:37:33.808Z,0.00
2019-02-02T01:38:33.779Z,0.00
2019-02-02T01:39:33.757Z,0.00
2019-02-02T01:40:33.748Z,0.00
2019-02-02T01:41:33.706Z,0.00
2019-02-02T01:42:33.676Z,0.00
2019-02-02T01:43:33.650Z,0.00
2019-02-02T01:44:33.634Z,0.00
2019-02-02T01:45:33.623Z,0.00
2019-02-02T01:46:33.607Z,0.00
2019-02-02T01:47:33.564Z,0.00
2019-02-02T01:48:33.534Z,0.00
2019-02-02T01:49:33.519Z,0.00
2019-02-02T01:50:33.475Z,0.00
2019-02-02T01:51:33.431Z,0.00
2019-02-02T01:52:33.411Z,0.00
2019-02-02T01:53:33.413Z,0.00
2019-02-02T01:54:33.372Z,0.00
2019-02-02T01:55:33.327Z,0.00
2019-02-02T01:56:33.332Z,0.00
2019-02-02T01:57:33.278Z,0.00
2019-02-02T01:58:33.252Z,0.00
2019-02-02T01:59:33.217Z,0.00
2019-02-02T02:00:33.211Z,0.00
2019-02-02T02:01:33.180Z,0.00
2019-02-02T02:02:33.141Z,0.00
2019-02-02T02:03:33.140Z,0.00
2019-02-02T02:04:33.085Z,0.00
2019-02-02T02:05:33.071Z,0.00
2019-02-02T02:06:33.056Z,0.00
2019-02-02T02:07:33.014Z,0.00
2019-02-02T02:08:32.977Z,0.00
2019-02-02T02:09:32.947Z,0.00
2019-02-02T02:10:32.954Z,0.00
2019-02-02T02:11:32.904Z,0.00
2019-02-02T02:12:32.867Z,0.00
2019-02-02T02:13:32.879Z,0.00
2019-02-02T02:14:32.848Z,0.00
2019-02-02T02:15:32.801Z,0.00
2019-02-02T02:16:32.809Z,0.00
2019-02-02T02:17:32.790Z,0.00
2019-02-02T02:18:32.708Z,0.00
2019-02-02T02:19:32.705Z,0.00
2019-02-02T02:20:32.654Z,0.00
2019-02-02T02:21:32.663Z,0.00
2019-02-02T02:22:40.957Z,0.00
2019-02-02T02:23:32.617Z,0.00
2019-02-02T02:24:32.567Z,0.00
2019-02-02T02:25:32.524Z,0.00
2019-02-02T02:26:32.525Z,0.00
2019-02-02T02:27:32.488Z,0.00
2019-02-02T02:28:32.448Z,0.00
2019-02-02T02:29:32.488Z,0.00
2019-02-02T02:30:32.414Z,0.00
2019-02-02T02:31:32.385Z,0.00
2019-02-02T02:32:32.340Z,0.00
2019-02-02T02:33:32.307Z,0.00
2019-02-02T02:34:32.294Z,0.00
2019-02-02T02:35:32.253Z,0.00
2019-02-02T02:36:32.257Z,0.00
2019-02-02T02:37:32.219Z,0.00
2019-02-02T02:38:32.198Z,0.00
2019-02-02T02:39:32.174Z,0.00
2019-02-02T02:40:32.137Z,0.00
2019-02-02T02:41:32.119Z,0.00
2019-02-02T02:42:32.072Z,0.00
2019-02-02T02:43:32.059Z,0.00
2019-02-02T02:44:32.043Z,0.00
2019-02-02T02:45:32.011Z,0.00
2019-02-02T02:46:31.963Z,0.00
2019-02-02T02:47:31.958Z,0.00
2019-02-02T02:48:31.914Z,0.00
2019-02-02T02:49:31.881Z,0.00
2019-02-02T02:50:31.855Z,0.00
2019-02-02T02:51:31.854Z,0.00
2019-02-02T02:52:31.842Z,0.00
2019-02-02T02:53:31.827Z,0.00
2019-02-02T02:54:31.759Z,0.00
2019-02-02T02:55:31.738Z,0.00
2019-02-02T02:56:31.706Z,0.00
2019-02-02T02:57:31.664Z,0.00
2019-02-02T02:58:41.075Z,0.00
2019-02-02T02:59:31.608Z,0.00
2019-02-02T03:00:31.579Z,0.00
2019-02-02T03:01:31.559Z,0.00
2019-02-02T03:02:31.553Z,0.00
2019-02-02T03:03:31.571Z,0.00
2019-02-02T03:04:31.496Z,0.00
2019-02-02T03:05:31.447Z,0.00
2019-02-02T03:06:31.426Z,0.00
2019-02-02T03:07:31.420Z,0.00
2019-02-02T03:08:31.392Z,0.00
2019-02-02T03:09:31.371Z,0.00
2019-02-02T03:10:31.317Z,0.00
2019-02-02T03:11:31.319Z,0.00
2019-02-02T03:12:31.444Z,0.00
2019-02-02T03:13:31.269Z,0.00
2019-02-02T03:14:31.234Z,0.00
2019-02-02T03:15:31.208Z,0.00
2019-02-02T03:16:31.199Z,0.00
2019-02-02T03:17:31.155Z,0.00
2019-02-02T03:18:31.114Z,0.00
2019-02-02T03:19:31.108Z,0.00
2019-02-02T03:20:31.080Z,0.00
2019-02-02T03:21:31.040Z,0.00
2019-02-02T03:22:31.025Z,0.00
2019-02-02T03:23:30.971Z,0.00
2019-02-02T03:24:30.958Z,0.00
2019-02-02T03:25:30.930Z,0.00
2019-02-02T03:26:30.962Z,0.00
2019-02-02T03:27:30.938Z,0.00
2019-02-02T03:28:30.847Z,0.00
2019-02-02T03:29:30.810Z,0.00
2019-02-02T03:30:30.809Z,0.00
2019-02-02T03:31:30.779Z,0.00
2019-02-02T03:32:30.773Z,0.00
2019-02-02T03:33:30.748Z,0.00
2019-02-02T03:34:30.692Z,0.00
2019-02-02T03:35:30.681Z,0.00
2019-02-02T03:36:30.669Z,0.00
2019-02-02T03:37:30.624Z,0.00
2019-02-02T03:38:30.630Z,0.00
2019-02-02T03:39:30.559Z,0.00
2019-02-02T03:40:30.546Z,0.00
2019-02-02T03:41:30.507Z,0.00
2019-02-02T03:42:30.492Z,0.00
2019-02-02T03:43:30.449Z,0.00
2019-02-02T03:44:30.446Z,0.00
2019-02-02T03:45:30.421Z,0.00
2019-02-02T03:46:30.372Z,0.00
2019-02-02T03:47:30.391Z,0.00
2019-02-02T03:48:30.329Z,0.00
2019-02-02T03:49:30.284Z,0.00
2019-02-02T03:50:30.257Z,0.00
2019-02-02T03:51:30.254Z,0.00
2019-02-02T03:52:30.230Z,0.00
2019-02-02T03:53:30.211Z,0.00
2019-02-02T03:54:30.194Z,0.00
2019-02-02T03:55:30.149Z,0.00
2019-02-02T03:56:30.139Z,0.00
2019-02-02T03:57:30.084Z,0.00
2019-02-02T03:58:30.075Z,0.00
2019-02-02T03:59:30.046Z,0.00
2019-02-02T04:00:30.014Z,0.00
2019-02-02T04:01:30.311Z,0.00
2019-02-02T04:02:29.981Z,0.00
2019-02-02T04:03:29.912Z,0.00
2019-02-02T04:04:29.925Z,0.00
2019-02-02T04:05:29.883Z,0.00
2019-02-02T04:06:29.858Z,0.00
2019-02-02T04:07:29.812Z,0.00
2019-02-02T04:08:29.822Z,0.00
2019-02-02T04:09:29.779Z,0.00
2019-02-02T04:10:29.752Z,0.00
2019-02-02T04:11:29.737Z,0.00
2019-02-02T04:12:29.680Z,0.00
2019-02-02T04:13:29.664Z,0.00
2019-02-02T04:14:29.636Z,0.00
2019-02-02T04:15:29.636Z,0.00
2019-02-02T04:16:29.591Z,0.00
2019-02-02T04:17:29.544Z,0.00
2019-02-02T04:18:29.529Z,0.00
2019-02-02T04:19:29.519Z,0.00
2019-02-02T04:20:29.471Z,0.00
2019-02-02T04:21:29.434Z,0.00
2019-02-02T04:22:29.439Z,0.00
2019-02-02T04:23:29.394Z,0.00
2019-02-02T04:24:29.360Z,0.00
2019-02-02T04:25:29.335Z,0.00
2019-02-02T04:26:29.456Z,0.00
2019-02-02T04:27:29.283Z,0.00
2019-02-02T04:28:29.251Z,0.00
2019-02-02T04:29:29.250Z,0.00
2019-02-02T04:30:29.233Z,0.00
2019-02-02T04:31:29.174Z,0.00
2019-02-02T04:32:29.143Z,0.00
2019-02-02T04:33:29.139Z,0.00
2019-02-02T04:34:29.112Z,0.00
2019-02-02T04:35:29.089Z,0.00
2019-02-02T04:36:29.039Z,0.00
2019-02-02T04:37:29.018Z,0.00
2019-02-02T04:38:28.992Z,0.00
2019-02-02T04:39:28.983Z,0.00
2019-02-02T04:40:28.973Z,0.00
2019-02-02T04:41:28.925Z,0.00
2019-02-02T04:42:28.893Z,0.00
2019-02-02T04:43:28.849Z,0.00
2019-02-02T04:44:28.879Z,0.00
2019-02-02T04:45:28.820Z,0.00
2019-02-02T04:46:28.789Z,0.00
2019-02-02T04:47:28.772Z,0.00
2019-02-02T04:48:28.717Z,0.00
2019-02-02T04:49:28.683Z,0.00
2019-02-02T04:50:28.717Z,0.00
2019-02-02T04:51:28.637Z,0.00
2019-02-02T04:52:28.631Z,0.00
2019-02-02T04:53:28.590Z,0.00
2019-02-02T04:54:28.551Z,0.00
2019-02-02T04:55:28.602Z,0.00
2019-02-02T04:56:28.529Z,0.00
2019-02-02T04:57:28.507Z,0.00
2019-02-02T04:58:28.466Z,0.00
2019-02-02T04:59:29.599Z,0.00
2019-02-02T05:00:28.391Z,0.00
2019-02-02T05:01:28.360Z,0.00
2019-02-02T05:02:30.388Z,0.00
2019-02-02T05:03:28.355Z,0.00
2019-02-02T05:04:28.322Z,0.00
2019-02-02T05:05:28.257Z,0.00
2019-02-02T05:06:28.252Z,0.00
2019-02-02T05:07:28.217Z,0.00
2019-02-02T05:08:28.220Z,0.00
2019-02-02T05:09:28.147Z,0.00
2019-02-02T05:10:28.119Z,0.00
2019-02-02T05:11:28.184Z,0.00
2019-02-02T05:12:28.108Z,0.00
2019-02-02T05:13:28.156Z,0.00
2019-02-02T05:14:28.054Z,0.00
2019-02-02T05:15:28.043Z,0.00
2019-02-02T05:16:27.989Z,0.00
2019-02-02T05:17:27.938Z,0.00
2019-02-02T05:18:28.011Z,0.00
2019-02-02T05:19:27.885Z,0.00
2019-02-02T05:20:27.874Z,0.00
2019-02-02T05:21:27.835Z,0.00
2019-02-02T05:22:27.816Z,0.00
2019-02-02T05:23:27.811Z,0.00
2019-02-02T05:24:27.871Z,0.00
2019-02-02T05:25:27.771Z,0.00
2019-02-02T05:26:27.716Z,0.00
2019-02-02T05:27:27.675Z,0.00
2019-02-02T05:28:27.666Z,0.00
2019-02-02T05:29:27.635Z,0.00
2019-02-02T05:30:27.597Z,0.00
2019-02-02T05:31:27.645Z,0.00
2019-02-02T05:32:27.530Z,0.00
2019-02-02T05:33:27.544Z,0.00
2019-02-02T05:34:27.496Z,0.00
2019-02-02T05:35:27.574Z,0.00
2019-02-02T05:36:27.510Z,0.00
2019-02-02T05:37:27.438Z,0.00
2019-02-02T05:38:27.390Z,0.00
2019-02-02T05:39:27.446Z,0.00
2019-02-02T05:40:27.317Z,0.00
2019-02-02T05:41:27.317Z,0.00
2019-02-02T05:42:27.272Z,0.00
2019-02-02T05:43:27.236Z,0.00
2019-02-02T05:44:27.236Z,0.00
2019-02-02T05:45:27.180Z,0.00
2019-02-02T05:46:27.192Z,0.00
2019-02-02T05:47:27.170Z,0.00
2019-02-02T05:48:27.114Z,0.00
2019-02-02T05:49:27.073Z,0.00
2019-02-02T05:50:27.095Z,0.00
2019-02-02T05:51:27.086Z,0.00
2019-02-02T05:52:27.021Z,0.00
2019-02-02T05:53:26.974Z,0.00
2019-02-02T05:54:26.993Z,0.00
2019-02-02T05:55:26.926Z,0.00
2019-02-02T05:56:26.931Z,0.00
2019-02-02T05:57:26.864Z,0.00
2019-02-02T05:58:26.852Z,0.00
2019-02-02T05:59:26.856Z,0.00
2019-02-02T06:00:26.786Z,0.00
2019-02-02T06:01:29.843Z,0.00
2019-02-02T06:02:26.729Z,0.00
2019-02-02T06:03:26.732Z,0.00
2019-02-02T06:04:26.691Z,0.00
2019-02-02T06:05:26.649Z,0.00
2019-02-02T06:06:26.685Z,0.00
2019-02-02T06:07:26.617Z,0.00
2019-02-02T06:08:26.592Z,0.00
2019-02-02T06:09:26.605Z,0.00
2019-02-02T06:10:26.546Z,0.00
2019-02-02T06:11:26.493Z,0.00
2019-02-02T06:12:26.482Z,0.00
2019-02-02T06:13:26.436Z,0.00
2019-02-02T06:14:26.485Z,0.00
2019-02-02T06:15:28.473Z,0.00
2019-02-02T06:16:26.352Z,0.00
2019-02-02T06:17:26.329Z,0.00
2019-02-02T06:18:26.308Z,0.00
2019-02-02T06:19:26.302Z,0.00
2019-02-02T06:20:26.291Z,0.00
2019-02-02T06:21:26.260Z,0.00
2019-02-02T06:22:26.201Z,0.00
2019-02-02T06:23:26.190Z,0.00
2019-02-02T06:24:26.141Z,0.00
2019-02-02T06:25:26.138Z,0.00
2019-02-02T06:26:26.124Z,0.00
2019-02-02T06:27:26.064Z,0.00
2019-02-02T06:28:26.048Z,0.00
2019-02-02T06:29:26.186Z,0.00
2019-02-02T06:30:25.980Z,0.00
2019-02-02T06:31:25.967Z,0.00
2019-02-02T06:32:25.942Z,0.00
2019-02-02T06:33:26.024Z,0.00
2019-02-02T06:34:25.942Z,0.00
2019-02-02T06:35:25.865Z,0.00
2019-02-02T06:36:25.819Z,0.00
2019-02-02T06:37:25.787Z,0.00
2019-02-02T06:38:25.794Z,0.00
2019-02-02T06:39:25.754Z,0.00
2019-02-02T06:40:25.734Z,0.00
2019-02-02T06:41:25.716Z,0.00
2019-02-02T06:42:25.742Z,0.00
2019-02-02T06:43:25.641Z,0.00
2019-02-02T06:44:25.644Z,0.00
2019-02-02T06:45:25.617Z,0.00
2019-02-02T06:46:25.572Z,4.00
2019-02-02T06:47:25.545Z,4.00
2019-02-02T06:48:25.521Z,0.00
2019-02-02T06:49:25.469Z,4.00
2019-02-02T06:50:25.453Z,4.00
2019-02-02T06:51:25.462Z,4.00
2019-02-02T06:52:25.404Z,4.00
2019-02-02T06:53:25.362Z,8.00
2019-02-02T06:54:25.374Z,8.00
2019-02-02T06:55:25.320Z,4.00
2019-02-02T06:56:25.283Z,8.00
2019-02-02T06:57:25.279Z,8.00
2019-02-02T06:58:25.248Z,12.00
2019-02-02T06:59:25.219Z,12.00
2019-02-02T07:00:26.502Z,12.00
2019-02-02T07:01:25.168Z,12.00
2019-02-02T07:02:25.127Z,16.00
2019-02-02T07:03:25.120Z,16.00
2019-02-02T07:04:25.083Z,20.00
2019-02-02T07:05:25.044Z,20.00
2019-02-02T07:06:25.021Z,20.00
2019-02-02T07:07:25.006Z,24.00
2019-02-02T07:08:24.976Z,24.00
2019-02-02T07:09:25.024Z,24.00
2019-02-02T07:10:24.944Z,24.00
2019-02-02T07:11:24.928Z,24.00
2019-02-02T07:12:24.863Z,28.00
2019-02-02T07:13:24.846Z,32.00
2019-02-02T07:14:24.825Z,32.00
2019-02-02T07:15:24.818Z,40.00
2019-02-02T07:16:24.762Z,36.00
2019-02-02T07:17:24.750Z,44.00
2019-02-02T07:18:24.717Z,44.00
2019-02-02T07:19:24.660Z,44.00
2019-02-02T07:20:24.637Z,52.00
2019-02-02T07:21:24.657Z,56.00
2019-02-02T07:22:24.615Z,68.00
2019-02-02T07:23:24.592Z,72.00
2019-02-02T07:24:24.540Z,80.00
2019-02-02T07:25:24.547Z,84.00
2019-02-02T07:26:24.545Z,84.00
2019-02-02T07:27:24.480Z,84.00
2019-02-02T07:28:24.423Z,80.00
2019-02-02T07:29:24.404Z,84.00
2019-02-02T07:30:28.649Z,84.00
2019-02-02T07:31:24.359Z,88.00
2019-02-02T07:32:24.384Z,100.00
2019-02-02T07:33:24.307Z,100.00
2019-02-02T07:34:24.286Z,100.00
2019-02-02T07:35:24.259Z,100.00
2019-02-02T07:36:24.232Z,104.00
2019-02-02T07:37:24.184Z,112.00
2019-02-02T07:38:24.191Z,108.00
2019-02-02T07:39:24.185Z,128.00
2019-02-02T07:40:24.133Z,128.00
2019-02-02T07:41:24.171Z,132.00
2019-02-02T07:42:24.057Z,156.00
2019-02-02T07:43:24.025Z,164.00
2019-02-02T07:44:24.034Z,192.00
2019-02-02T07:45:24.024Z,192.00
2019-02-02T07:46:24.009Z,208.00
2019-02-02T07:47:23.932Z,236.00
2019-02-02T07:48:23.913Z,256.00
2019-02-02T07:49:23.951Z,288.00
2019-02-02T07:50:23.888Z,308.00
2019-02-02T07:51:23.840Z,296.00
2019-02-02T07:52:23.800Z,324.00
2019-02-02T07:53:23.773Z,336.00
2019-02-02T07:54:23.766Z,356.00
2019-02-02T07:55:23.710Z,344.00
2019-02-02T07:56:23.682Z,356.00
2019-02-02T07:57:23.711Z,316.00
2019-02-02T07:58:23.626Z,344.00
2019-02-02T07:59:23.635Z,336.00
2019-02-02T08:00:23.615Z,348.00
2019-02-02T08:01:23.571Z,348.00
2019-02-02T08:02:23.534Z,352.00
2019-02-02T08:03:23.501Z,384.00
2019-02-02T08:04:23.528Z,372.00
2019-02-02T08:05:23.534Z,348.00
2019-02-02T08:06:23.447Z,360.00
2019-02-02T08:07:23.454Z,356.00
2019-02-02T08:08:23.416Z,356.00
2019-02-02T08:09:23.351Z,352.00
2019-02-02T08:10:23.325Z,360.00
2019-02-02T08:11:23.282Z,364.00
2019-02-02T08:12:23.273Z,348.00
2019-02-02T08:13:23.235Z,376.00
2019-02-02T08:14:23.263Z,368.00
2019-02-02T08:15:23.191Z,352.00
2019-02-02T08:16:23.159Z,384.00
2019-02-02T08:17:23.137Z,380.00
2019-02-02T08:18:23.108Z,372.00
2019-02-02T08:19:25.636Z,396.00
2019-02-02T08:20:23.063Z,440.00
2019-02-02T08:21:23.030Z,416.00
2019-02-02T08:22:23.085Z,392.00
2019-02-02T08:23:22.959Z,404.00
2019-02-02T08:24:23.090Z,408.00
2019-02-02T08:25:22.950Z,392.00
2019-02-02T08:26:22.902Z,452.00
2019-02-02T08:27:23.001Z,436.00
2019-02-02T08:28:22.858Z,440.00
2019-02-02T08:29:22.832Z,456.00
2019-02-02T08:30:22.799Z,472.00
2019-02-02T08:31:22.765Z,492.00
2019-02-02T08:32:23.522Z,500.00
2019-02-02T08:33:22.705Z,500.00
2019-02-02T08:34:22.672Z,520.00
2019-02-02T08:35:22.655Z,544.00
2019-02-02T08:36:22.632Z,548.00
2019-02-02T08:37:22.593Z,564.00
2019-02-02T08:38:22.629Z,616.00
2019-02-02T08:39:29.304Z,604.00
2019-02-02T08:40:22.519Z,656.00
2019-02-02T08:41:22.526Z,656.00
2019-02-02T08:42:22.474Z,668.00
2019-02-02T08:43:22.463Z,708.00
2019-02-02T08:44:22.419Z,708.00
2019-02-02T08:45:22.402Z,768.00
2019-02-02T08:46:22.394Z,788.00
2019-02-02T08:47:22.606Z,732.00
2019-02-02T08:48:22.339Z,764.00
2019-02-02T08:49:22.296Z,780.00
2019-02-02T08:50:22.270Z,808.00
2019-02-02T08:51:22.248Z,832.00
2019-02-02T08:52:22.277Z,788.00
2019-02-02T08:53:22.258Z,800.00
2019-02-02T08:54:22.177Z,788.00
2019-02-02T08:55:22.165Z,772.00
2019-02-02T08:56:22.200Z,780.00
2019-02-02T08:57:22.097Z,820.00
2019-02-02T08:58:22.067Z,844.00
2019-02-02T08:59:22.437Z,872.00
2019-02-02T09:00:22.193Z,920.00
2019-02-02T09:01:21.975Z,1008.00
2019-02-02T09:02:22.015Z,1028.00
2019-02-02T09:03:22.030Z,1048.00
2019-02-02T09:04:21.963Z,1052.00
2019-02-02T09:05:22.026Z,1004.00
2019-02-02T09:06:21.856Z,952.00
2019-02-02T09:07:21.799Z,920.00
2019-02-02T09:08:21.901Z,832.00
2019-02-02T09:09:21.759Z,836.00
2019-02-02T09:10:21.737Z,748.00
2019-02-02T09:11:21.705Z,700.00
2019-02-02T09:12:21.699Z,748.00
2019-02-02T09:13:21.652Z,728.00
2019-02-02T09:14:21.676Z,696.00
2019-02-02T09:15:21.580Z,788.00
2019-02-02T09:16:21.572Z,820.00
2019-02-02T09:17:21.539Z,796.00
2019-02-02T09:18:21.515Z,784.00
2019-02-02T09:19:21.603Z,812.00
2019-02-02T09:20:21.542Z,828.00
2019-02-02T09:21:21.446Z,836.00
2019-02-02T09:22:21.482Z,876.00
2019-02-02T09:23:21.453Z,956.00
2019-02-02T09:24:21.527Z,1028.00
2019-02-02T09:25:21.425Z,1056.00
2019-02-02T09:26:21.325Z,1108.00
2019-02-02T09:27:21.315Z,1132.00
2019-02-02T09:28:21.274Z,1196.00
2019-02-02T09:29:21.241Z,1216.00
2019-02-02T09:30:21.211Z,1216.00
2019-02-02T09:31:21.216Z,1228.00
2019-02-02T09:32:21.167Z,1284.00
2019-02-02T09:33:21.136Z,1368.00
2019-02-02T09:34:21.080Z,1412.00
2019-02-02T09:35:21.184Z,1352.00
2019-02-02T09:36:21.102Z,1368.00
2019-02-02T09:37:21.027Z,1392.00
2019-02-02T09:38:20.999Z,1400.00
2019-02-02T09:39:20.970Z,1352.00
2019-02-02T09:40:21.038Z,1476.00
2019-02-02T09:41:20.897Z,1556.00
2019-02-02T09:42:20.951Z,1652.00
2019-02-02T09:43:20.881Z,1752.00
2019-02-02T09:44:20.946Z,1876.00
2019-02-02T09:45:20.812Z,1996.00
2019-02-02T09:46:20.775Z,2100.00
2019-02-02T09:47:20.749Z,2152.00
2019-02-02T09:48:20.796Z,2112.00
2019-02-02T09:49:20.697Z,2164.00
2019-02-02T09:50:20.666Z,2256.00
2019-02-02T09:51:20.657Z,2300.00
2019-02-02T09:52:20.633Z,2328.00
2019-02-02T09:53:20.648Z,2300.00
2019-02-02T09:54:26.693Z,2256.00
2019-02-02T09:55:20.524Z,2328.00
2019-02-02T09:56:20.504Z,2332.00
2019-02-02T09:57:20.498Z,2352.00
2019-02-02T09:58:20.448Z,2252.00
2019-02-02T09:59:20.446Z,2280.00
2019-02-02T10:00:20.426Z,2320.00
2019-02-02T10:01:27.530Z,2352.00
2019-02-02T10:02:20.421Z,2292.00
2019-02-02T10:03:20.357Z,2232.00
2019-02-02T10:04:20.290Z,2104.00
2019-02-02T10:05:20.275Z,2120.00
2019-02-02T10:06:20.264Z,2104.00
2019-02-02T10:07:20.252Z,2164.00
2019-02-02T10:08:20.199Z,2148.00
2019-02-02T10:09:20.164Z,2088.00
2019-02-02T10:10:20.139Z,2224.00
2019-02-02T10:11:20.138Z,2168.00
2019-02-02T10:12:21.082Z,2284.00
2019-02-02T10:13:20.077Z,2148.00
2019-02-02T10:14:20.027Z,2192.00
2019-02-02T10:15:20.016Z,2080.00
2019-02-02T10:16:19.990Z,2084.00
2019-02-02T10:17:19.960Z,2052.00
2019-02-02T10:18:19.952Z,2136.00
2019-02-02T10:19:19.910Z,2224.00
2019-02-02T10:20:19.915Z,2096.00
2019-02-02T10:21:19.863Z,2028.00
2019-02-02T10:22:20.022Z,1904.00
2019-02-02T10:23:19.824Z,1904.00
2019-02-02T10:24:19.803Z,1884.00
2019-02-02T10:25:19.747Z,2044.00
2019-02-02T10:26:19.736Z,2128.00
2019-02-02T10:27:19.688Z,2204.00
2019-02-02T10:28:19.688Z,2132.00
2019-02-02T10:29:19.655Z,2068.00
2019-02-02T10:30:22.623Z,2224.00
2019-02-02T10:31:19.612Z,2192.00
2019-02-02T10:32:19.576Z,2292.00
2019-02-02T10:33:19.610Z,2484.00
2019-02-02T10:34:19.585Z,2568.00
2019-02-02T10:35:19.528Z,2500.00
2019-02-02T10:36:20.139Z,2268.00
2019-02-02T10:37:19.430Z,2248.00
2019-02-02T10:38:19.436Z,2252.00
2019-02-02T10:39:19.382Z,2248.00
2019-02-02T10:40:19.439Z,2224.00
2019-02-02T10:41:19.398Z,2164.00
2019-02-02T10:42:19.323Z,2088.00
2019-02-02T10:43:19.397Z,2108.00
2019-02-02T10:44:19.287Z,2092.00
2019-02-02T10:45:19.245Z,2152.00
2019-02-02T10:46:19.199Z,2084.00
2019-02-02T10:47:19.237Z,2056.00
2019-02-02T10:48:19.195Z,2236.00
2019-02-02T10:49:19.172Z,2324.00
2019-02-02T10:50:19.117Z,2468.00
2019-02-02T10:51:19.078Z,2264.00
2019-02-02T10:52:19.057Z,2252.00
2019-02-02T10:53:19.055Z,2400.00
2019-02-02T10:54:19.428Z,2292.00
2019-02-02T10:55:19.019Z,2112.00
2019-02-02T10:56:19.002Z,2028.00
2019-02-02T10:57:18.919Z,2164.00
2019-02-02T10:58:18.985Z,2164.00
2019-02-02T10:59:18.892Z,2032.00
2019-02-02T11:00:18.873Z,2020.00
2019-02-02T11:01:18.808Z,2152.00
2019-02-02T11:02:18.784Z,2128.00
2019-02-02T11:03:19.260Z,2028.00
2019-02-02T11:04:18.923Z,1948.00
2019-02-02T11:05:18.773Z,2040.00
2019-02-02T11:06:18.701Z,1952.00
2019-02-02T11:07:18.857Z,2104.00
2019-02-02T11:08:18.714Z,2120.00
2019-02-02T11:09:18.759Z,2192.00
2019-02-02T11:10:18.892Z,1916.00
2019-02-02T11:11:18.702Z,1800.00
2019-02-02T11:12:18.551Z,1648.00
2019-02-02T11:13:18.594Z,1724.00
2019-02-02T11:14:18.529Z,1824.00
2019-02-02T11:15:18.660Z,1732.00
2019-02-02T11:16:18.557Z,1640.00
2019-02-02T11:17:18.435Z,1624.00
2019-02-02T11:18:18.373Z,1456.00
2019-02-02T11:19:18.363Z,1660.00
2019-02-02T11:20:18.390Z,1784.00
2019-02-02T11:21:18.307Z,1972.00
2019-02-02T11:22:20.255Z,2024.00
2019-02-02T11:23:19.359Z,2104.00
2019-02-02T11:24:19.035Z,2412.00
2019-02-02T11:25:18.481Z,2276.00
2019-02-02T11:26:18.321Z,2324.00
2019-02-02T11:27:18.188Z,2192.00
2019-02-02T11:28:19.044Z,2200.00
2019-02-02T11:29:18.094Z,2068.00
2019-02-02T11:30:18.388Z,1928.00
2019-02-02T11:31:18.052Z,1832.00
2019-02-02T11:32:18.407Z,1792.00
2019-02-02T11:33:17.981Z,1940.00
2019-02-02T11:34:17.983Z,2024.00
2019-02-02T11:35:17.947Z,1964.00
2019-02-02T11:36:17.908Z,1840.00
2019-02-02T11:37:18.025Z,1900.00
2019-02-02T11:38:17.876Z,1992.00
2019-02-02T11:39:18.396Z,2036.00
2019-02-02T11:40:17.806Z,2056.00
2019-02-02T11:41:17.813Z,2192.00
2019-02-02T11:42:17.768Z,2096.00
2019-02-02T11:43:17.749Z,2100.00
2019-02-02T11:44:19.919Z,2324.00
2019-02-02T11:45:17.701Z,2404.00
2019-02-02T11:46:17.685Z,2412.00
2019-02-02T11:47:17.622Z,2340.00
2019-02-02T11:48:17.590Z,2124.00
2019-02-02T11:49:17.613Z,2112.00
2019-02-02T11:50:17.744Z,2112.00
2019-02-02T11:51:17.536Z,2124.00
2019-02-02T11:52:17.479Z,2076.00
2019-02-02T11:53:17.478Z,2000.00
2019-02-02T11:54:17.507Z,2208.00
2019-02-02T11:55:17.415Z,2044.00
2019-02-02T11:56:17.435Z,2288.00
2019-02-02T11:57:17.386Z,2332.00
2019-02-02T11:58:20.024Z,2228.00
2019-02-02T11:59:17.389Z,2312.00
2019-02-02T12:00:17.303Z,2312.00
2019-02-02T12:01:17.418Z,2236.00
2019-02-02T12:02:17.227Z,2212.00
2019-02-02T12:03:17.194Z,2048.00
2019-02-02T12:04:17.169Z,2140.00
2019-02-02T12:05:17.147Z,1932.00
2019-02-02T12:06:17.121Z,1864.00
2019-02-02T12:07:17.108Z,1836.00
2019-02-02T12:08:17.448Z,1696.00
2019-02-02T12:09:17.045Z,1888.00
2019-02-02T12:10:17.014Z,1728.00
2019-02-02T12:11:17.027Z,1796.00
2019-02-02T12:12:17.021Z,1592.00
2019-02-02T12:13:16.949Z,1592.00
2019-02-02T12:14:16.925Z,1504.00
2019-02-02T12:15:16.891Z,1496.00
2019-02-02T12:16:16.868Z,1368.00
2019-02-02T12:17:16.877Z,1504.00
2019-02-02T12:18:16.859Z,1472.00
2019-02-02T12:19:16.809Z,1488.00
2019-02-02T12:20:16.845Z,1504.00
2019-02-02T12:21:16.750Z,1452.00
2019-02-02T12:22:16.701Z,1356.00
2019-02-02T12:23:16.682Z,1368.00
2019-02-02T12:25:53.083Z,1296.00
2019-02-02T12:26:39.746Z,1184.00
2019-02-02T12:27:39.683Z,1232.00
2019-02-02T12:28:39.635Z,1228.00
2019-02-02T12:29:39.647Z,1216.00
2019-02-02T12:32:02.701Z,1212.00
2019-02-02T12:33:03.593Z,1208.00
2019-02-02T12:34:02.724Z,1204.00
2019-02-02T12:35:04.555Z,1236.00
2019-02-02T12:37:36.900Z,1072.00
2019-02-02T12:38:25.753Z,1072.00
2019-02-02T12:39:25.782Z,1024.00
2019-02-02T12:40:25.703Z,1004.00
2019-02-02T12:41:25.722Z,1032.00
2019-02-02T12:42:25.632Z,1044.00
2019-02-02T12:43:27.332Z,980.00
2019-02-02T12:44:25.581Z,936.00
2019-02-02T12:45:25.622Z,952.00
2019-02-02T12:46:25.621Z,888.00
2019-02-02T12:47:25.499Z,824.00
2019-02-02T12:49:58.689Z,892.00
2019-02-02T12:51:00.323Z,916.00
2019-02-02T12:52:42.198Z,1044.00
2019-02-02T12:53:42.154Z,1092.00
2019-02-02T12:54:42.159Z,1080.00
2019-02-02T12:55:42.123Z,1124.00